createdAt,value
2019-03-19T00:01:45.169Z,99880.26
2019-03-19T00:04:15.161Z,99868.59
2019-03-19T00:06:45.336Z,99874.19
2019-03-19T00:09:15.395Z,99864.21
2019-03-19T00:11:45.261Z,99871.23
2019-03-19T00:14:15.148Z,99872.06
2019-03-19T00:16:45.031Z,99860.86
2019-03-19T00:19:15.228Z,99867.41
2019-03-19T00:21:45.281Z,99860.00
2019-03-19T00:24:15.352Z,99852.97
2019-03-19T00:26:45.279Z,99856.41
2019-03-19T00:29:15.365Z,99847.80
2019-03-19T00:31:45.353Z,99849.54
2019-03-19T00:34:15.253Z,99850.84
2019-03-19T00:36:44.946Z,99859.95
2019-03-19T00:39:14.912Z,99857.35
2019-03-19T00:41:44.793Z,99859.13
2019-03-19T00:44:14.888Z,99851.31
2019-03-19T00:46:46.243Z,99853.45
2019-03-19T00:49:16.186Z,99860.77
2019-03-19T00:51:45.946Z,99837.44
2019-03-19T00:54:16.685Z,99839.30
2019-03-19T00:56:46.620Z,99843.59
2019-03-19T00:59:16.502Z,99851.41
2019-03-19T01:01:46.533Z,99830.62
2019-03-19T01:04:16.646Z,99832.31
2019-03-19T01:06:46.480Z,99833.57
2019-03-19T01:09:16.286Z,99823.20
2019-03-19T01:11:46.433Z,99815.00
2019-03-19T01:14:16.297Z,99828.88
2019-03-19T01:16:46.278Z,99825.41
2019-03-19T01:19:16.193Z,99830.18
2019-03-19T01:21:46.198Z,99831.53
2019-03-19T01:24:16.187Z,99833.22
2019-03-19T01:26:46.346Z,99827.97
2019-03-19T01:29:16.244Z,99833.13
2019-03-19T01:31:46.053Z,99824.02
2019-03-19T01:34:16.274Z,99827.06
2019-03-19T01:36:46.146Z,99817.64
2019-03-19T01:39:16.333Z,99816.78
2019-03-19T01:41:46.826Z,99822.06
2019-03-19T01:44:16.816Z,99819.38
2019-03-19T01:46:46.741Z,99813.30
2019-03-19T01:49:16.623Z,99802.84
2019-03-19T01:51:46.791Z,99804.93
2019-03-19T01:54:17.195Z,99796.25
2019-03-19T01:56:47.123Z,99797.64
2019-03-19T01:59:17.128Z,99800.98
2019-03-19T02:01:47.107Z,99790.95
2019-03-19T02:04:16.820Z,99784.92
2019-03-19T02:06:47.108Z,99793.95
2019-03-19T02:09:17.333Z,99793.95
2019-03-19T02:11:47.074Z,99772.73
2019-03-19T02:14:17.133Z,99768.73
2019-03-19T02:16:46.954Z,99763.63
2019-03-19T02:19:17.137Z,99760.23
2019-03-19T02:21:47.112Z,99759.51
2019-03-19T02:24:17.166Z,99767.14
2019-03-19T02:26:47.021Z,99770.23
2019-03-19T02:29:17.150Z,99763.38
2019-03-19T02:31:48.022Z,99756.03
2019-03-19T02:34:17.938Z,99763.89
2019-03-19T02:36:48.777Z,99757.52
2019-03-19T02:39:18.860Z,99763.77
2019-03-19T02:41:48.708Z,99756.83
2019-03-19T02:44:18.801Z,99756.73
2019-03-19T02:46:48.821Z,99744.55
2019-03-19T02:49:18.711Z,99730.70
2019-03-19T02:51:48.671Z,99741.51
2019-03-19T02:54:18.814Z,99743.30
2019-03-19T02:56:48.712Z,99752.05
2019-03-19T02:59:18.898Z,99744.64
2019-03-19T03:01:48.793Z,99762.33
2019-03-19T03:04:18.857Z,99754.87
2019-03-19T03:06:48.942Z,99741.30
2019-03-19T03:09:19.124Z,99746.84
2019-03-19T03:11:49.137Z,99738.95
2019-03-19T03:14:19.205Z,99743.24
2019-03-19T03:16:49.328Z,99745.84
2019-03-19T03:19:19.130Z,99742.37
2019-03-19T03:21:49.669Z,99731.48
2019-03-19T03:24:20.395Z,99744.11
2019-03-19T03:26:50.448Z,99744.97
2019-03-19T03:29:20.422Z,99753.61
2019-03-19T03:31:50.689Z,99741.45
2019-03-19T03:34:20.813Z,99751.88
2019-03-19T03:36:50.869Z,99739.77
2019-03-19T03:39:23.592Z,99742.76
2019-03-19T03:41:53.636Z,99729.79
2019-03-19T03:44:23.805Z,99728.92
2019-03-19T03:46:53.886Z,99732.44
2019-03-19T03:49:24.088Z,99722.03
2019-03-19T03:51:54.216Z,99724.98
2019-03-19T03:54:24.136Z,99716.25
2019-03-19T03:57:01.848Z,99712.78
2019-03-19T03:59:26.235Z,99724.49
2019-03-19T04:01:56.284Z,99725.66
2019-03-19T04:04:26.617Z,99720.41
2019-03-19T04:06:56.802Z,99713.86
2019-03-19T04:09:26.879Z,99708.16
2019-03-19T04:11:56.936Z,99713.77
2019-03-19T04:14:27.204Z,99715.45
2019-03-19T04:16:57.213Z,99702.91
2019-03-19T04:19:27.226Z,99708.90
2019-03-19T04:21:57.241Z,99720.95
2019-03-19T04:24:27.613Z,99718.31
2019-03-19T04:26:58.529Z,99732.19
2019-03-19T04:29:28.650Z,99729.53
2019-03-19T04:32:01.814Z,99727.28
2019-03-19T04:34:31.844Z,99723.72
2019-03-19T04:37:02.013Z,99714.13
2019-03-19T04:39:32.305Z,99712.44
2019-03-19T04:42:05.524Z,99706.44
2019-03-19T04:44:37.444Z,99700.33
2019-03-19T04:47:08.075Z,99700.72
2019-03-19T04:49:38.079Z,99718.75
2019-03-19T04:52:08.259Z,99722.82
2019-03-19T04:54:38.233Z,99722.72
2019-03-19T04:57:08.364Z,99727.06
2019-03-19T04:59:38.464Z,99725.28
2019-03-19T05:02:08.706Z,99730.30
2019-03-19T05:04:39.597Z,99733.53
2019-03-19T05:07:09.900Z,99732.47
2019-03-19T05:09:39.819Z,99729.76
2019-03-19T05:12:10.218Z,99727.44
2019-03-19T05:14:40.735Z,99718.27
2019-03-19T05:17:11.363Z,99731.92
2019-03-19T05:19:41.878Z,99733.08
2019-03-19T05:22:11.644Z,99733.85
2019-03-19T05:24:42.215Z,99737.33
2019-03-19T05:27:14.024Z,99736.85
2019-03-19T05:29:44.962Z,99741.23
2019-03-19T05:32:16.884Z,99738.49
2019-03-19T05:34:47.093Z,99723.19
2019-03-19T05:37:17.324Z,99715.55
2019-03-19T05:39:47.428Z,99729.63
2019-03-19T05:42:17.831Z,99732.56
2019-03-19T05:44:47.942Z,99729.77
2019-03-19T05:47:18.467Z,99739.65
2019-03-19T05:49:48.629Z,99732.22
2019-03-19T05:52:18.784Z,99737.23
2019-03-19T05:54:49.105Z,99734.80
2019-03-19T05:57:19.022Z,99731.98
2019-03-19T05:59:49.816Z,99747.44
2019-03-19T06:02:20.069Z,99743.08
2019-03-19T06:04:50.094Z,99754.16
2019-03-19T06:07:20.327Z,99747.73
2019-03-19T06:09:50.515Z,99756.92
2019-03-19T06:12:20.753Z,99760.89
2019-03-19T06:14:50.984Z,99763.69
2019-03-19T06:17:21.017Z,99755.97
2019-03-19T06:19:51.303Z,99777.75
2019-03-19T06:22:21.406Z,99793.03
2019-03-19T06:24:51.710Z,99766.28
2019-03-19T06:27:22.171Z,99773.97
2019-03-19T06:29:52.278Z,99767.16
2019-03-19T06:32:23.101Z,99770.20
2019-03-19T06:34:53.019Z,99766.72
2019-03-19T06:37:22.988Z,99772.03
2019-03-19T06:39:53.657Z,99763.83
2019-03-19T06:42:23.744Z,99768.12
2019-03-19T06:44:53.868Z,99772.42
2019-03-19T06:47:24.214Z,99767.11
2019-03-19T06:49:54.447Z,99760.45
2019-03-19T06:52:24.624Z,99763.78
2019-03-19T06:54:54.952Z,99763.73
2019-03-19T06:57:25.028Z,99772.04
2019-03-19T06:59:55.238Z,99779.47
2019-03-19T07:02:25.550Z,99776.58
2019-03-19T07:04:55.849Z,99775.32
2019-03-19T07:07:26.092Z,99780.58
2019-03-19T07:09:56.644Z,99786.76
2019-03-19T07:12:26.852Z,99798.14
2019-03-19T07:14:56.921Z,99809.97
2019-03-19T07:17:27.120Z,99807.02
2019-03-19T07:19:58.539Z,99803.98
2019-03-19T07:22:28.895Z,99793.16
2019-03-19T07:24:59.254Z,99791.39
2019-03-19T07:27:29.377Z,99788.00
2019-03-19T07:30:00.274Z,99790.60
2019-03-19T07:32:30.319Z,99796.73
2019-03-19T07:35:00.578Z,99785.83
2019-03-19T07:37:30.903Z,99776.22
2019-03-19T07:40:01.113Z,99781.83
2019-03-19T07:42:31.682Z,99791.86
2019-03-19T07:45:02.261Z,99802.33
2019-03-19T07:47:33.096Z,99804.47
2019-03-19T07:50:03.429Z,99803.98
2019-03-19T07:52:34.062Z,99802.63
2019-03-19T07:55:04.704Z,99805.23
2019-03-19T07:57:35.815Z,99816.09
2019-03-19T08:00:07.502Z,99817.48
2019-03-19T08:02:37.753Z,99815.31
2019-03-19T08:05:08.638Z,99817.05
2019-03-19T08:07:38.988Z,99814.79
2019-03-19T08:10:09.426Z,99824.73
2019-03-19T08:12:39.934Z,99833.28
2019-03-19T08:15:11.132Z,99836.23
2019-03-19T08:17:42.942Z,99836.57
2019-03-19T08:20:13.625Z,99835.73
2019-03-19T08:22:43.755Z,99836.57
2019-03-19T08:25:13.948Z,99829.22
2019-03-19T08:27:44.087Z,99840.37
2019-03-19T08:30:15.646Z,99841.25
2019-03-19T08:32:45.962Z,99842.94
2019-03-19T08:35:16.330Z,99853.85
2019-03-19T08:37:46.929Z,99852.68
2019-03-19T08:40:18.184Z,99852.26
2019-03-19T08:42:48.712Z,99856.30
2019-03-19T08:45:19.543Z,99843.75
2019-03-19T08:47:50.305Z,99846.92
2019-03-19T08:50:21.099Z,99848.77
2019-03-19T08:52:51.197Z,99851.89
2019-03-19T08:55:21.652Z,99848.41
2019-03-19T08:57:51.879Z,99840.11
2019-03-19T09:00:22.540Z,99842.67
2019-03-19T09:02:52.728Z,99847.88
2019-03-19T09:05:22.760Z,99846.92
2019-03-19T09:07:53.272Z,99848.66
2019-03-19T09:10:24.086Z,99855.53
2019-03-19T09:12:54.195Z,99845.88
2019-03-19T09:15:24.397Z,99845.00
2019-03-19T09:17:54.945Z,99846.27
2019-03-19T09:20:25.368Z,99856.21
2019-03-19T09:22:56.816Z,99859.91
2019-03-19T09:25:26.796Z,99862.04
2019-03-19T09:27:57.201Z,99864.89
2019-03-19T09:30:27.804Z,99874.27
2019-03-19T09:32:57.932Z,99877.31
2019-03-19T09:35:28.694Z,99882.13
2019-03-19T09:38:02.042Z,99884.25
2019-03-19T09:40:32.991Z,99875.86
2019-03-19T09:43:03.151Z,99882.68
2019-03-19T09:45:33.599Z,99872.98
2019-03-19T09:48:03.830Z,99864.16
2019-03-19T09:50:34.058Z,99875.05
2019-03-19T09:53:04.320Z,99875.05
2019-03-19T09:55:34.483Z,99863.14
2019-03-19T09:58:04.550Z,99865.50
2019-03-19T10:00:35.141Z,99859.14
2019-03-19T10:03:05.124Z,99865.41
2019-03-19T10:05:35.270Z,99869.14
2019-03-19T10:08:05.824Z,99868.56
2019-03-19T10:10:36.085Z,99878.41
2019-03-19T10:13:06.645Z,99875.61
2019-03-19T10:15:37.257Z,99871.87
2019-03-19T10:18:07.323Z,99880.33
2019-03-19T10:20:37.654Z,99877.61
2019-03-19T10:23:09.461Z,99884.09
2019-03-19T10:25:39.767Z,99891.00
2019-03-19T10:28:10.135Z,99887.14
2019-03-19T10:30:40.386Z,99880.51
2019-03-19T10:33:10.996Z,99880.69
2019-03-19T10:35:41.193Z,99889.24
2019-03-19T10:38:14.635Z,99898.33
2019-03-19T10:40:47.317Z,99896.11
2019-03-19T10:43:17.405Z,99889.81
2019-03-19T10:45:47.492Z,99894.06
2019-03-19T10:48:18.110Z,99901.03
2019-03-19T10:50:48.272Z,99902.28
2019-03-19T10:53:18.500Z,99904.34
2019-03-19T10:55:48.571Z,99905.93
2019-03-19T10:58:19.387Z,99901.87
2019-03-19T11:00:49.302Z,99902.09
2019-03-19T11:03:19.876Z,99907.02
2019-03-19T11:05:51.092Z,99908.16
2019-03-19T11:08:24.653Z,99913.27
2019-03-19T11:10:54.568Z,99925.86
2019-03-19T11:13:24.645Z,99920.72
2019-03-19T11:15:54.942Z,99922.41
2019-03-19T11:18:25.339Z,99919.14
2019-03-19T11:20:55.262Z,99917.94
2019-03-19T11:23:26.184Z,99930.83
2019-03-19T11:25:57.228Z,99934.80
2019-03-19T11:28:27.338Z,99935.13
2019-03-19T11:30:57.614Z,99935.47
2019-03-19T11:33:27.836Z,99933.44
2019-03-19T11:35:57.881Z,99923.91
2019-03-19T11:38:28.846Z,99921.91
2019-03-19T11:40:59.435Z,99927.64
2019-03-19T11:43:30.030Z,99929.09
2019-03-19T11:46:00.240Z,99933.42
2019-03-19T11:48:31.547Z,99928.64
2019-03-19T11:51:01.757Z,99936.92
2019-03-19T11:53:32.142Z,99928.30
2019-03-19T11:56:02.207Z,99925.11
2019-03-19T11:58:32.007Z,99917.97
2019-03-19T12:01:03.508Z,99929.14
2019-03-19T12:03:33.481Z,99927.30
2019-03-19T12:06:03.941Z,99924.41
2019-03-19T12:08:34.152Z,99919.89
2019-03-19T12:11:04.467Z,99931.33
2019-03-19T12:13:34.337Z,99924.73
2019-03-19T12:16:04.606Z,99932.11
2019-03-19T12:18:35.642Z,99922.95
2019-03-19T12:21:05.770Z,99930.90
2019-03-19T12:23:35.767Z,99930.40
2019-03-19T12:26:05.958Z,99934.32
2019-03-19T12:28:39.868Z,99938.63
2019-03-19T12:31:08.389Z,99943.33
2019-03-19T12:33:41.230Z,99939.67
2019-03-19T12:36:11.103Z,99945.44
2019-03-19T12:38:41.201Z,99947.19
2019-03-19T12:41:11.391Z,99946.36
2019-03-19T12:43:41.783Z,99948.32
2019-03-19T12:46:12.114Z,99948.12
2019-03-19T12:48:42.321Z,99938.52
2019-03-19T12:51:12.775Z,99939.23
2019-03-19T12:53:42.843Z,99938.20
2019-03-19T12:56:13.028Z,99938.41
2019-03-19T12:58:42.993Z,99940.37
2019-03-19T13:01:13.355Z,99950.89
2019-03-19T13:03:43.573Z,99955.41
2019-03-19T13:06:13.939Z,99957.31
2019-03-19T13:08:44.196Z,99957.59
2019-03-19T13:11:14.373Z,99957.53
2019-03-19T13:13:44.730Z,99968.69
2019-03-19T13:16:15.026Z,99963.19
2019-03-19T13:18:45.861Z,99957.57
2019-03-19T13:21:16.243Z,99957.63
2019-03-19T13:23:46.327Z,99967.75
2019-03-19T13:26:16.748Z,99961.98
2019-03-19T13:28:46.962Z,99965.33
2019-03-19T13:31:17.279Z,99966.30
2019-03-19T13:33:47.655Z,99972.06
2019-03-19T13:36:17.668Z,99974.78
2019-03-19T13:38:48.137Z,99980.88
2019-03-19T13:41:18.401Z,99993.13
2019-03-19T13:43:48.621Z,99989.91
2019-03-19T13:46:18.901Z,99991.74
2019-03-19T13:48:49.777Z,99988.27
2019-03-19T13:51:20.414Z,99984.29
2019-03-19T13:53:51.803Z,99990.72
2019-03-19T13:56:22.186Z,99992.30
2019-03-19T13:58:52.409Z,99995.30
2019-03-19T14:01:22.551Z,99998.47
2019-03-19T14:03:52.589Z,99986.07
2019-03-19T14:06:22.699Z,99983.89
2019-03-19T14:08:53.467Z,99983.63
2019-03-19T14:11:23.623Z,99984.22
2019-03-19T14:13:55.707Z,99998.66
2019-03-19T14:16:25.763Z,100002.42
2019-03-19T14:18:55.995Z,99980.73
2019-03-19T14:21:26.039Z,99982.31
2019-03-19T14:23:56.038Z,99998.77
2019-03-19T14:26:26.457Z,100000.94
2019-03-19T14:28:56.689Z,100003.17
2019-03-19T14:31:26.878Z,100010.65
2019-03-19T14:33:56.890Z,100017.72
2019-03-19T14:36:27.108Z,100020.97
2019-03-19T14:38:57.295Z,100028.14
2019-03-19T14:41:27.439Z,100026.14
2019-03-19T14:43:57.650Z,100014.63
2019-03-19T14:46:29.079Z,100035.75
2019-03-19T14:48:59.516Z,100036.77
2019-03-19T14:51:29.815Z,100037.79
2019-03-19T14:54:00.277Z,100025.75
2019-03-19T14:56:30.840Z,100021.16
2019-03-19T14:59:02.110Z,100020.88
2019-03-19T15:01:32.443Z,100048.48
2019-03-19T15:04:02.645Z,100049.03
2019-03-19T15:06:32.687Z,100063.53
2019-03-19T15:09:05.774Z,100042.73
2019-03-19T15:11:35.927Z,100050.96
2019-03-19T15:14:06.060Z,100048.64
2019-03-19T15:16:36.811Z,100047.23
2019-03-19T15:19:07.623Z,100049.80
2019-03-19T15:21:37.456Z,100051.54
2019-03-19T15:24:07.600Z,100049.89
2019-03-19T15:26:37.722Z,100050.39
2019-03-19T15:29:07.852Z,100055.69
2019-03-19T15:31:38.201Z,100059.61
2019-03-19T15:34:08.427Z,100050.09
2019-03-19T15:36:38.638Z,100054.09
2019-03-19T15:39:09.209Z,100042.06
2019-03-19T15:41:39.298Z,100037.84
2019-03-19T15:44:09.755Z,100049.60
2019-03-19T15:46:40.404Z,100045.59
2019-03-19T15:49:10.550Z,100051.44
2019-03-19T15:51:40.753Z,100052.05
2019-03-19T15:54:10.766Z,100058.67
2019-03-19T15:56:41.345Z,100039.67
2019-03-19T15:59:11.457Z,100059.78
2019-03-19T16:01:42.628Z,100062.09
2019-03-19T16:04:12.788Z,100061.80
2019-03-19T16:06:42.709Z,100061.93
2019-03-19T16:09:13.940Z,100071.16
2019-03-19T16:11:44.411Z,100074.67
2019-03-19T16:14:14.625Z,100070.81
2019-03-19T16:16:44.915Z,100077.77
2019-03-19T16:19:15.855Z,100073.07
2019-03-19T16:21:47.544Z,100074.81
2019-03-19T16:24:18.397Z,100083.59
2019-03-19T16:26:48.825Z,100090.61
2019-03-19T16:29:19.506Z,100084.52
2019-03-19T16:31:51.099Z,100067.08
2019-03-19T16:34:22.070Z,100075.77
2019-03-19T16:36:52.325Z,100070.12
2019-03-19T16:39:22.585Z,100082.20
2019-03-19T16:41:52.903Z,100086.07
2019-03-19T16:44:23.332Z,100091.20
2019-03-19T16:46:53.656Z,100095.08
2019-03-19T16:49:23.835Z,100084.64
2019-03-19T16:51:54.115Z,100087.67
2019-03-19T16:54:24.826Z,100079.38
2019-03-19T16:56:55.269Z,100092.08
2019-03-19T16:59:26.306Z,100095.69
2019-03-19T17:02:01.831Z,100081.99
2019-03-19T17:04:28.853Z,100094.73
2019-03-19T17:06:58.726Z,100104.00
2019-03-19T17:09:28.813Z,100104.95
2019-03-19T17:11:59.266Z,100103.26
2019-03-19T17:14:29.914Z,100111.17
2019-03-19T17:17:00.103Z,100115.59
2019-03-19T17:19:30.238Z,100116.51
2019-03-19T17:22:00.303Z,100122.20
2019-03-19T17:24:30.779Z,100116.59
2019-03-19T17:27:01.646Z,100115.30
2019-03-19T17:29:32.923Z,100120.11
2019-03-19T17:32:12.468Z,100121.46
2019-03-19T17:34:35.877Z,100121.90
2019-03-19T17:37:06.088Z,100125.81
2019-03-19T17:39:38.148Z,100116.73
2019-03-19T17:42:08.571Z,100131.85
2019-03-19T17:44:38.878Z,100131.73
2019-03-19T17:47:08.895Z,100127.34
2019-03-19T17:49:39.338Z,100126.42
2019-03-19T17:52:09.497Z,100122.47
2019-03-19T17:54:39.851Z,100130.69
2019-03-19T17:57:10.213Z,100129.42
2019-03-19T17:59:40.062Z,100128.25
2019-03-19T18:02:10.536Z,100129.24
2019-03-19T18:04:41.604Z,100122.85
2019-03-19T18:07:11.816Z,100139.05
2019-03-19T18:09:41.651Z,100136.18
2019-03-19T18:12:11.988Z,100132.35
2019-03-19T18:14:42.391Z,100131.09
2019-03-19T18:17:12.628Z,100134.69
2019-03-19T18:19:42.897Z,100146.15
2019-03-19T18:22:12.878Z,100142.39
2019-03-19T18:24:43.367Z,100145.09
2019-03-19T18:27:13.556Z,100145.16
2019-03-19T18:29:44.143Z,100142.75
2019-03-19T18:32:14.295Z,100140.27
2019-03-19T18:34:44.527Z,100143.47
2019-03-19T18:37:14.667Z,100147.60
2019-03-19T18:39:45.233Z,100143.86
2019-03-19T18:42:15.290Z,100151.81
2019-03-19T18:44:45.405Z,100151.57
2019-03-19T18:47:15.782Z,100154.69
2019-03-19T18:49:46.364Z,100149.91
2019-03-19T18:52:16.605Z,100154.61
2019-03-19T18:54:46.887Z,100156.67
2019-03-19T18:57:17.037Z,100159.05
2019-03-19T18:59:46.964Z,100157.52
2019-03-19T19:02:18.039Z,100158.34
2019-03-19T19:04:48.697Z,100158.19
2019-03-19T19:07:18.897Z,100169.36
2019-03-19T19:09:49.297Z,100169.72
2019-03-19T19:12:19.989Z,100165.45
2019-03-19T19:14:50.357Z,100165.89
2019-03-19T19:17:20.347Z,100170.12
2019-03-19T19:19:50.712Z,100169.13
2019-03-19T19:22:21.269Z,100162.02
2019-03-19T19:24:51.706Z,100164.00
2019-03-19T19:27:21.665Z,100160.09
2019-03-19T19:29:52.000Z,100166.61
2019-03-19T19:32:22.548Z,100163.61
2019-03-19T19:34:52.802Z,100163.17
2019-03-19T19:37:23.101Z,100167.91
2019-03-19T19:39:53.514Z,100163.92
2019-03-19T19:42:23.735Z,100155.15
2019-03-19T19:44:54.843Z,100160.72
2019-03-19T19:47:25.032Z,100158.94
2019-03-19T19:49:55.366Z,100162.37
2019-03-19T19:52:25.961Z,100160.28
2019-03-19T19:54:55.923Z,100162.93
2019-03-19T19:57:25.940Z,100160.76
2019-03-19T19:59:55.974Z,100161.23
2019-03-19T20:02:26.085Z,100159.19
2019-03-19T20:05:02.980Z,100159.78
2019-03-19T20:07:28.198Z,100151.20
2019-03-19T20:09:58.836Z,100150.57
2019-03-19T20:12:29.132Z,100149.03
2019-03-19T20:14:59.592Z,100150.97
2019-03-19T20:17:30.167Z,100154.12
2019-03-19T20:20:00.505Z,100149.74
2019-03-19T20:22:30.426Z,100152.34
2019-03-19T20:25:01.329Z,100160.62
2019-03-19T20:27:31.574Z,100156.77
2019-03-19T20:30:01.365Z,100159.41
2019-03-19T20:32:31.828Z,100171.17
2019-03-19T20:35:01.607Z,100171.60
2019-03-19T20:37:31.728Z,100169.36
2019-03-19T20:40:01.977Z,100168.84
2019-03-19T20:42:32.012Z,100167.94
2019-03-19T20:45:02.832Z,100173.51
2019-03-19T20:47:32.758Z,100172.71
2019-03-19T20:50:04.186Z,100169.28
2019-03-19T20:52:34.511Z,100166.50
2019-03-19T20:55:04.985Z,100172.45
2019-03-19T20:57:34.619Z,100176.94
2019-03-19T21:00:05.526Z,100179.03
2019-03-19T21:02:35.774Z,100178.88
2019-03-19T21:05:05.823Z,100182.68
2019-03-19T21:07:36.101Z,100180.83
2019-03-19T21:10:06.538Z,100179.97
2019-03-19T21:12:36.420Z,100185.17
2019-03-19T21:15:07.765Z,100183.84
2019-03-19T21:17:37.847Z,100180.87
2019-03-19T21:20:07.851Z,100182.61
2019-03-19T21:22:37.944Z,100179.13
2019-03-19T21:25:08.194Z,100182.49
2019-03-19T21:27:38.296Z,100186.33
2019-03-19T21:30:08.957Z,100192.33
2019-03-19T21:32:39.947Z,100195.80
2019-03-19T21:35:10.150Z,100197.10
2019-03-19T21:37:39.906Z,100200.55
2019-03-19T21:40:11.330Z,100199.72
2019-03-19T21:42:41.415Z,100196.23
2019-03-19T21:45:11.531Z,100191.58
2019-03-19T21:47:42.384Z,100196.75
2019-03-19T21:50:13.170Z,100201.05
2019-03-19T21:52:43.711Z,100194.54
2019-03-19T21:55:14.440Z,100192.38
2019-03-19T21:57:44.643Z,100199.31
2019-03-19T22:00:16.686Z,100191.94
2019-03-19T22:02:46.865Z,100189.84
2019-03-19T22:05:16.697Z,100187.16
2019-03-19T22:07:46.774Z,100186.22
2019-03-19T22:10:17.194Z,100186.14
2019-03-19T22:12:49.383Z,100190.09
2019-03-19T22:15:19.036Z,100188.38
2019-03-19T22:17:49.117Z,100172.08
2019-03-19T22:20:18.974Z,100175.27
2019-03-19T22:22:49.028Z,100186.12
2019-03-19T22:25:19.619Z,100182.17
2019-03-19T22:27:49.510Z,100195.95
2019-03-19T22:30:19.495Z,100213.21
2019-03-19T22:32:49.514Z,100205.00
2019-03-19T22:35:19.329Z,100211.11
2019-03-19T22:37:49.378Z,100203.34
2019-03-19T22:40:19.400Z,100202.90
2019-03-19T22:42:49.220Z,100201.12
2019-03-19T22:45:19.505Z,100192.02
2019-03-19T22:47:49.395Z,100198.23
2019-03-19T22:50:19.656Z,100191.47
2019-03-19T22:52:49.579Z,100192.52
2019-03-19T22:55:28.460Z,100200.01
2019-03-19T22:57:51.092Z,100202.43
2019-03-19T23:00:31.307Z,100187.05
2019-03-19T23:03:03.876Z,100196.34
2019-03-19T23:05:34.143Z,100195.20
2019-03-19T23:08:04.259Z,100197.55
2019-03-19T23:10:34.659Z,100200.25
2019-03-19T23:13:04.697Z,100195.41
2019-03-19T23:15:34.854Z,100192.80
2019-03-19T23:18:05.178Z,100199.91
2019-03-19T23:20:35.292Z,100200.14
2019-03-19T23:23:05.933Z,100201.95
2019-03-19T23:25:35.883Z,100205.28
2019-03-19T23:28:05.978Z,100193.41
2019-03-19T23:30:36.084Z,100192.84
2019-03-19T23:33:05.958Z,100186.66
2019-03-19T23:35:36.125Z,100194.94
2019-03-19T23:38:06.065Z,100196.25
2019-03-19T23:40:35.985Z,100197.95
2019-03-19T23:43:06.219Z,100195.78
2019-03-19T23:45:36.036Z,100199.61
2019-03-19T23:48:06.106Z,100199.00
2019-03-19T23:50:38.533Z,100191.89
2019-03-19T23:53:08.276Z,100186.66
2019-03-19T23:55:38.219Z,100191.45
2019-03-19T23:58:08.020Z,100187.95
